Time;durP1;ratioP1;P1;durP2;ratioP2;P2;SDS_P1;SDS_P2;PMS_P1;PMS_P2;Temp;Humidity;BMP_temperature;BMP_pressure;BME280_temperature;BME280_humidity;BME280_pressure;Samples;Min_cycle;Max_cycle;Signal;HPM_P1;HPM_P2
2020/12/06 00:00:10;;;;;;;265.02;118.72;;;;;;;0.81;78.26;96668.56;1789647;80;26194;-84
2020/12/06 00:02:39;;;;;;;239.20;115.50;;;;;;;0.83;78.36;96671.88;1777791;80;25671;-85
2020/12/06 00:05:11;;;;;;;238.52;114.32;;;;;;;0.79;78.24;96674.53;1775540;80;25778;-85
2020/12/06 00:07:39;;;;;;;273.93;131.03;;;;;;;0.77;78.21;96672.54;1776860;80;25387;-85
2020/12/06 00:10:08;;;;;;;283.75;133.30;;;;;;;0.75;78.17;96673.20;1757036;80;27573;-84
2020/12/06 00:12:39;;;;;;;259.62;117.08;;;;;;;0.73;78.15;96668.55;1767996;80;25386;-83
2020/12/06 00:15:11;;;;;;;278.95;118.90;;;;;;;0.72;78.22;96674.89;1725392;81;25771;-85
2020/12/06 00:17:38;;;;;;;276.55;119.33;;;;;;;0.70;78.17;96675.55;1696407;81;26451;-83
2020/12/06 00:20:10;;;;;;;312.95;128.72;;;;;;;0.68;78.12;96686.83;1696534;81;25850;-85
2020/12/06 00:22:38;;;;;;;300.73;134.67;;;;;;;0.62;78.09;96681.67;1696436;81;28498;-84
2020/12/06 00:25:05;;;;;;;276.00;127.42;;;;;;;0.63;78.24;96680.69;1696425;81;25850;-85
2020/12/06 00:27:35;;;;;;;271.95;124.70;;;;;;;0.62;78.33;96675.53;1709789;81;25739;-85
2020/12/06 00:30:09;;;;;;;271.15;125.85;;;;;;;0.64;78.36;96685.00;1751067;81;26488;-85
2020/12/06 00:32:40;;;;;;;257.55;124.65;;;;;;;0.59;78.31;96678.55;1755263;81;25758;-85
2020/12/06 00:35:09;;;;;;;302.05;144.75;;;;;;;0.63;78.33;96673.22;1718917;82;28519;-84
2020/12/06 00:37:39;;;;;;;288.15;133.12;;;;;;;0.57;78.39;96664.11;1739087;82;25738;-85
2020/12/06 00:40:09;;;;;;;282.23;133.70;;;;;;;0.75;78.35;96693.13;1739196;82;25739;-85
2020/12/06 00:42:37;;;;;;;279.15;129.80;;;;;;;0.71;78.10;96690.00;1739238;82;25791;-85
2020/12/06 00:45:06;;;;;;;294.05;138.43;;;;;;;0.64;77.92;96684.17;1730479;82;25785;-85
2020/12/06 00:47:38;;;;;;;282.98;136.00;;;;;;;0.60;78.04;96690.83;1711009;82;28720;-85
2020/12/06 00:50:08;;;;;;;289.77;132.12;;;;;;;0.55;77.98;96687.83;1726107;82;33159;-85
2020/12/06 00:52:35;;;;;;;270.88;124.87;;;;;;;0.47;77.98;96694.48;1728795;81;25907;-85
2020/12/06 00:55:03;;;;;;;273.55;127.25;;;;;;;0.40;78.04;96693.47;1724678;82;25670;-85
2020/12/06 00:57:30;;;;;;;265.52;122.98;;;;;;;0.36;78.14;96681.84;1731867;82;25778;-85
2020/12/06 00:59:57;;;;;;;275.62;129.38;;;;;;;0.39;78.22;96695.79;1718492;82;27576;-86
2020/12/06 01:02:25;;;;;;;276.55;134.72;;;;;;;0.42;78.29;96700.77;1730898;82;25874;-86
2020/12/06 01:04:52;;;;;;;280.48;134.90;;;;;;;0.42;78.29;96691.48;1739224;82;25880;-85
2020/12/06 01:07:19;;;;;;;262.27;124.95;;;;;;;0.41;78.14;96694.63;1739148;82;26548;-86
2020/12/06 01:09:47;;;;;;;300.82;135.32;;;;;;;0.37;78.02;96689.31;1723750;82;25746;-85
2020/12/06 01:12:14;;;;;;;292.98;124.87;;;;;;;0.26;78.10;96685.16;1716897;82;27583;-86
2020/12/06 01:14:41;;;;;;;262.35;119.50;;;;;;;0.25;78.26;96681.34;1725754;82;25822;-85
2020/12/06 01:17:09;;;;;;;260.25;119.25;;;;;;;0.28;78.36;96675.22;1733199;82;25619;-85
2020/12/06 01:19:36;;;;;;;245.63;116.65;;;;;;;0.27;78.33;96678.86;1724689;82;25769;-85
2020/12/06 01:22:03;;;;;;;243.48;111.28;;;;;;;0.20;78.23;96680.53;1734322;82;25817;-85
2020/12/06 01:24:31;;;;;;;221.18;105.25;;;;;;;0.19;78.28;96682.84;1727097;81;28454;-85
2020/12/06 01:26:58;;;;;;;220.15;101.50;;;;;;;0.17;78.26;96683.50;1702968;81;26351;-85
2020/12/06 01:29:25;;;;;;;230.80;106.78;;;;;;;0.19;78.35;96674.88;1733383;82;25798;-85
2020/12/06 01:31:53;;;;;;;211.80;100.55;;;;;;;0.16;78.24;96676.53;1709655;82;26064;-85
2020/12/06 01:34:20;;;;;;;219.87;101.47;;;;;;;0.11;78.25;96678.87;1719715;81;25770;-85
2020/12/06 01:36:53;;;;;;;212.45;99.92;;;;;;;0.08;78.28;96679.68;1702962;84;27517;-85
2020/12/06 01:39:20;;;;;;;203.80;98.47;;;;;;;0.09;78.34;96677.36;1702276;82;26129;-85
2020/12/06 01:41:48;;;;;;;221.65;100.92;;;;;;;0.06;78.21;96682.99;1702291;82;25751;-85
2020/12/06 01:44:15;;;;;;;206.93;93.42;;;;;;;-0.01;78.28;96680.17;1702308;82;26494;-85
2020/12/06 01:46:43;;;;;;;186.60;87.12;;;;;;;0.03;78.35;96680.66;1702405;82;26365;-85
2020/12/06 01:49:10;;;;;;;179.35;87.10;;;;;;;-0.01;78.38;96684.16;1702384;82;27553;-85
2020/12/06 01:51:38;;;;;;;178.47;85.55;;;;;;;0.01;78.41;96686.13;1702489;84;25642;-85
2020/12/06 01:54:05;;;;;;;161.55;81.12;;;;;;;0.00;78.46;96689.80;1702484;82;25800;-85
2020/12/06 01:56:32;;;;;;;162.50;78.37;;;;;;;0.07;78.60;96688.64;1702448;82;26438;-85
2020/12/06 01:59:00;;;;;;;161.12;78.65;;;;;;;0.10;78.47;96696.28;1702391;82;25786;-85
2020/12/06 02:01:27;;;;;;;175.18;79.70;;;;;;;0.12;78.43;96692.44;1731771;82;27494;-85
2020/12/06 02:03:55;;;;;;;175.42;82.95;;;;;;;0.16;78.43;96692.45;1684983;84;25909;-84
2020/12/06 02:06:22;;;;;;;175.68;80.30;;;;;;;0.15;78.25;96698.75;1723642;83;25810;-85
2020/12/06 02:08:51;;;;;;;173.65;80.87;;;;;;;0.10;78.19;96686.49;1727504;83;26500;-85
2020/12/06 02:11:36;;;;;;;168.75;80.92;;;;;;;0.10;78.23;96689.15;1727461;81;25784;-84
2020/12/06 02:14:04;;;;;;;165.75;79.55;;;;;;;0.08;78.10;96694.28;1727565;81;27568;-84
2020/12/06 02:16:31;;;;;;;165.15;78.95;;;;;;;0.06;78.12;96695.77;1727405;81;26101;-84
2020/12/06 02:18:58;;;;;;;159.00;73.78;;;;;;;0.06;78.07;96695.77;1727510;81;25818;-84
2020/12/06 02:21:26;;;;;;;163.07;78.85;;;;;;;0.02;78.01;96696.23;1727518;83;25739;-84
2020/12/06 02:23:53;;;;;;;228.07;95.25;;;;;;;-0.08;78.06;96699.88;1727508;83;25727;-84
2020/12/06 02:26:20;;;;;;;204.35;87.12;;;;;;;-0.13;78.16;96694.74;1727490;81;27574;-85
2020/12/06 02:28:48;;;;;;;186.80;83.60;;;;;;;-0.08;78.33;96697.72;1727470;83;25318;-84
2020/12/06 02:31:15;;;;;;;194.07;83.85;;;;;;;-0.03;78.35;96699.41;1729499;82;26453;-84
2020/12/06 02:33:43;;;;;;;183.05;81.70;;;;;;;0.00;78.34;96692.45;1740397;82;25741;-84
2020/12/06 02:36:10;;;;;;;181.97;81.20;;;;;;;-0.03;78.12;96698.08;1740363;82;25919;-84
2020/12/06 02:38:37;;;;;;;172.95;81.50;;;;;;;-0.12;78.12;96703.84;1740273;82;26782;-85
2020/12/06 02:41:05;;;;;;;202.45;83.10;;;;;;;-0.10;78.18;96693.06;1740204;82;25822;-85
2020/12/06 02:43:32;;;;;;;194.70;85.92;;;;;;;-0.10;78.19;96692.57;1739553;82;26147;-84
2020/12/06 02:45:59;;;;;;;175.90;78.45;;;;;;;-0.09;78.17;96697.38;1732644;82;25883;-84
2020/12/06 02:48:26;;;;;;;156.93;73.22;;;;;;;-0.10;78.20;96694.39;1719017;82;25958;-85
2020/12/06 02:50:54;;;;;;;144.87;69.82;;;;;;;-0.11;78.15;96700.69;1719474;82;28860;-84
2020/12/06 02:53:21;;;;;;;147.65;70.25;;;;;;;-0.16;78.16;96700.36;1740175;82;25701;-85
2020/12/06 02:55:48;;;;;;;141.20;68.30;;;;;;;-0.13;78.22;96700.05;1740209;82;25762;-85
2020/12/06 02:58:16;;;;;;;135.05;64.17;;;;;;;-0.10;78.22;96694.39;1740392;82;26355;-84
2020/12/06 03:00:43;;;;;;;135.43;67.92;;;;;;;-0.17;78.13;96694.72;1740340;82;25851;-85
2020/12/06 03:03:10;;;;;;;131.50;65.57;;;;;;;-0.21;78.14;96700.84;1740330;82;27623;-85
2020/12/06 03:05:38;;;;;;;142.98;69.67;;;;;;;-0.23;78.12;96696.68;1739451;82;25843;-85
2020/12/06 03:08:05;;;;;;;137.40;66.02;;;;;;;-0.26;78.16;96701.00;1740277;82;25840;-85
2020/12/06 03:10:33;;;;;;;142.22;68.67;;;;;;;-0.23;78.30;96704.63;1740288;81;25513;-85
2020/12/06 03:13:00;;;;;;;148.57;68.85;;;;;;;-0.26;78.18;96698.35;1740347;82;25772;-85
2020/12/06 03:15:27;;;;;;;153.20;70.20;;;;;;;-0.25;78.28;96698.69;1740246;81;27542;-84
2020/12/06 03:17:55;;;;;;;153.20;73.83;;;;;;;-0.23;78.31;96696.68;1740236;82;25789;-84
2020/12/06 03:20:22;;;;;;;148.50;72.08;;;;;;;-0.22;78.27;96690.39;1740305;81;25388;-84
2020/12/06 03:22:49;;;;;;;141.05;70.12;;;;;;;-0.19;78.36;96686.09;1736309;81;25745;-84
2020/12/06 03:25:17;;;;;;;148.90;70.35;;;;;;;-0.18;78.26;96683.77;1724190;82;25946;-84
2020/12/06 03:27:44;;;;;;;140.07;69.80;;;;;;;-0.21;78.30;96689.39;1720031;81;27560;-84
2020/12/06 03:30:11;;;;;;;139.22;67.75;;;;;;;-0.18;78.39;96675.81;1726811;81;26403;-84
2020/12/06 03:32:39;;;;;;;133.93;67.65;;;;;;;-0.25;78.27;96681.45;1727780;81;25791;-84
2020/12/06 03:35:06;;;;;;;135.10;65.10;;;;;;;-0.27;78.28;96683.42;1725992;81;25776;-84
2020/12/06 03:37:33;;;;;;;131.70;64.60;;;;;;;-0.24;78.36;96673.83;1726718;81;25732;-84
2020/12/06 03:40:00;;;;;;;130.72;64.40;;;;;;;-0.30;78.20;96684.57;1726481;81;27523;-84
2020/12/06 03:42:28;;;;;;;131.60;64.17;;;;;;;-0.28;78.34;96681.77;1745215;81;26094;-85
2020/12/06 03:44:55;;;;;;;133.30;62.00;;;;;;;-0.23;78.42;96692.70;1754860;81;25826;-84
2020/12/06 03:47:22;;;;;;;136.03;60.88;;;;;;;-0.18;78.44;96691.23;1754977;80;25961;-85
2020/12/06 03:49:50;;;;;;;123.55;57.48;;;;;;;-0.14;78.37;96691.75;1729570;81;25769;-84
2020/12/06 03:52:18;;;;;;;131.10;59.05;;;;;;;-0.11;78.35;96692.73;1725878;81;27616;-84
2020/12/06 03:54:45;;;;;;;116.35;56.58;;;;;;;-0.14;78.22;96697.89;1728856;81;25785;-85
2020/12/06 03:57:12;;;;;;;106.32;51.95;;;;;;;-0.13;78.20;96694.74;1742508;81;25737;-85
2020/12/06 03:59:39;;;;;;;116.93;54.73;;;;;;;-0.17;78.04;96690.74;1725243;81;25801;-84
2020/12/06 04:02:07;;;;;;;115.57;53.50;;;;;;;-0.23;78.10;96688.72;1736029;81;25835;-84
2020/12/06 04:04:34;;;;;;;114.17;53.65;;;;;;;-0.25;78.22;96688.91;1754921;81;28557;-84
2020/12/06 04:07:01;;;;;;;122.15;56.08;;;;;;;-0.23;78.30;96698.84;1754808;81;26405;-85
2020/12/06 04:09:29;;;;;;;122.47;57.75;;;;;;;-0.20;78.27;96696.36;1738277;81;26472;-84
2020/12/06 04:11:56;;;;;;;124.07;57.40;;;;;;;-0.21;78.22;96705.31;1725533;81;25571;-84
2020/12/06 04:14:23;;;;;;;112.52;56.50;;;;;;;-0.21;78.16;96692.05;1725982;81;25781;-84
2020/12/06 04:16:51;;;;;;;119.90;56.70;;;;;;;-0.17;78.18;96697.38;1748514;81;27494;-85
2020/12/06 04:19:18;;;;;;;107.78;55.30;;;;;;;-0.17;78.16;96701.35;1743949;81;25772;-85
2020/12/06 04:21:45;;;;;;;107.00;54.45;;;;;;;-0.17;78.14;96698.70;1746777;81;25733;-85
2020/12/06 04:24:13;;;;;;;113.47;55.20;;;;;;;-0.18;78.15;96704.50;1754965;81;25760;-85
2020/12/06 04:26:40;;;;;;;111.05;55.12;;;;;;;-0.18;78.09;96710.30;1754872;80;25765;-85
2020/12/06 04:29:08;;;;;;;117.00;58.85;;;;;;;-0.16;78.11;96710.98;1728826;81;27606;-85
2020/12/06 04:31:35;;;;;;;113.30;54.80;;;;;;;-0.21;77.87;96714.59;1727181;81;26173;-85
2020/12/06 04:34:02;;;;;;;110.90;55.50;;;;;;;-0.37;77.76;96714.90;1725128;81;25749;-86
2020/12/06 04:36:30;;;;;;;110.88;56.10;;;;;;;-0.45;77.80;96720.64;1724774;81;25808;-85
2020/12/06 04:38:57;;;;;;;115.45;57.83;;;;;;;-0.49;77.95;96730.76;1748311;81;25703;-85
2020/12/06 04:41:26;;;;;;;104.87;56.75;;;;;;;-0.44;78.17;96722.30;1754838;81;27505;-85
2020/12/06 04:43:54;;;;;;;106.67;53.10;;;;;;;-0.43;78.27;96730.59;1735210;80;26022;-85
2020/12/06 04:46:21;;;;;;;109.40;57.13;;;;;;;-0.37;78.40;96722.02;1745790;81;25782;-85
2020/12/06 04:49:09;;;;;;;108.90;56.68;;;;;;;-0.30;78.41;96718.22;1727133;81;25798;-85
2020/12/06 04:51:42;;;;;;;104.95;55.52;;;;;;;-0.28;78.32;96729.50;1743258;81;25783;-85
2020/12/06 04:54:11;;;;;;;111.57;57.98;;;;;;;-0.29;78.18;96722.04;1726507;81;27493;-84
2020/12/06 04:56:39;;;;;;;112.20;58.15;;;;;;;-0.26;78.18;96719.57;1725674;81;25765;-85
2020/12/06 04:59:07;;;;;;;113.00;57.53;;;;;;;-0.24;78.10;96719.72;1727234;81;25793;-85
2020/12/06 05:01:38;;;;;;;118.47;58.05;;;;;;;-0.40;77.90;96727.14;1754722;81;25797;-84
2020/12/06 05:04:14;;;;;;;122.72;58.90;;;;;;;-0.44;77.97;96720.98;1737512;80;26354;-85
2020/12/06 05:06:44;;;;;;;120.25;57.83;;;;;;;-0.46;78.03;96719.81;1733774;81;28455;-84
2020/12/06 05:09:15;;;;;;;115.35;55.40;;;;;;;-0.52;78.02;96721.79;1754770;80;25784;-84
2020/12/06 05:11:44;;;;;;;105.78;55.38;;;;;;;-0.51;78.12;96727.92;1754902;81;25854;-85
2020/12/06 05:14:12;;;;;;;105.67;54.50;;;;;;;-0.48;78.22;96721.78;1737717;81;25768;-85
2020/12/06 05:16:41;;;;;;;108.03;51.98;;;;;;;-0.45;78.25;96719.31;1745886;80;26055;-85
2020/12/06 05:19:10;;;;;;;100.72;50.80;;;;;;;-0.48;78.17;96716.48;1726358;81;27497;-84
2020/12/06 05:21:41;;;;;;;100.72;48.75;;;;;;;-0.49;78.13;96716.67;1744335;81;26120;-85
2020/12/06 05:24:08;;;;;;;104.97;48.92;;;;;;;-0.48;78.13;96723.60;1727661;81;25748;-85
2020/12/06 05:26:36;;;;;;;105.63;50.78;;;;;;;-0.43;78.20;96719.99;1725801;81;25752;-85
2020/12/06 05:29:05;;;;;;;101.20;49.27;;;;;;;-0.40;78.32;96715.20;1746190;81;25723;-85
2020/12/06 05:31:32;;;;;;;108.97;52.85;;;;;;;-0.38;78.25;96721.69;1740955;81;27509;-84
2020/12/06 05:33:59;;;;;;;116.53;53.02;;;;;;;-0.43;78.17;96727.45;1750611;80;26129;-85
2020/12/06 05:36:27;;;;;;;118.70;56.48;;;;;;;-0.41;78.21;96732.11;1736525;80;26451;-85
2020/12/06 05:38:54;;;;;;;137.32;62.27;;;;;;;-0.45;78.16;96717.50;1742895;81;25684;-86
2020/12/06 05:41:21;;;;;;;140.60;60.30;;;;;;;-0.44;78.23;96719.16;1738927;81;25842;-85
2020/12/06 05:43:49;;;;;;;127.42;59.48;;;;;;;-0.40;78.28;96719.68;1720050;81;28600;-84
2020/12/06 05:46:18;;;;;;;126.47;57.55;;;;;;;-0.36;78.29;96716.53;1719921;81;25877;-84
2020/12/06 05:48:46;;;;;;;132.87;57.65;;;;;;;-0.40;78.05;96719.19;1720221;81;25633;-85
2020/12/06 05:51:16;;;;;;;130.97;57.33;;;;;;;-0.45;78.06;96720.15;1732205;81;26443;-85
2020/12/06 05:53:44;;;;;;;113.95;55.10;;;;;;;-0.45;78.13;96717.50;1728147;81;25781;-84
2020/12/06 05:56:18;;;;;;;118.33;56.50;;;;;;;-0.47;78.02;96727.92;1720109;81;27503;-85
2020/12/06 05:58:49;;;;;;;120.28;56.75;;;;;;;-0.52;77.94;96728.41;1741073;81;25397;-85
2020/12/06 06:01:18;;;;;;;119.60;52.70;;;;;;;-0.54;77.97;96727.73;1740070;81;25769;-85
2020/12/06 06:03:48;;;;;;;112.95;55.08;;;;;;;-0.59;77.92;96736.65;1719987;81;26445;-85
2020/12/06 06:06:39;;;;;;;120.08;54.58;;;;;;;-0.60;78.01;96727.03;1728294;81;25851;-85
2020/12/06 06:09:08;;;;;;;119.65;55.45;;;;;;;-0.61;78.04;96736.00;1725528;81;27643;-85
2020/12/06 06:11:39;;;;;;;121.62;54.93;;;;;;;-0.63;78.07;96732.67;1715256;82;26387;-86
2020/12/06 06:14:09;;;;;;;125.97;57.90;;;;;;;-0.58;78.09;96731.69;1739240;81;25772;-85
2020/12/06 06:16:36;;;;;;;127.72;58.90;;;;;;;-0.61;77.95;96742.63;1720052;81;26508;-85
2020/12/06 06:19:06;;;;;;;133.18;57.80;;;;;;;-0.58;78.12;96743.62;1720017;81;25846;-84
2020/12/06 06:21:39;;;;;;;132.12;65.28;;;;;;;-0.63;78.05;96745.93;1738557;81;28646;-85
2020/12/06 06:24:14;;;;;;;145.92;64.10;;;;;;;-0.62;78.13;96746.77;1738994;81;25783;-85
2020/12/06 06:26:46;;;;;;;128.18;61.28;;;;;;;-0.65;78.08;96751.88;1720018;81;25797;-86
2020/12/06 06:29:15;;;;;;;135.55;63.17;;;;;;;-0.66;78.15;96759.98;1720042;81;26517;-85
2020/12/06 06:31:47;;;;;;;141.30;64.30;;;;;;;-0.60;78.24;96759.34;1720163;81;25833;-85
2020/12/06 06:34:16;;;;;;;135.68;61.37;;;;;;;-0.66;78.19;96759.98;1721493;81;27426;-84
2020/12/06 06:36:46;;;;;;;144.13;64.53;;;;;;;-0.70;78.20;96758.12;1721760;83;25748;-85
2020/12/06 06:39:19;;;;;;;138.82;65.28;;;;;;;-0.75;78.22;96762.59;1721674;81;25736;-86
2020/12/06 06:42:09;;;;;;;138.43;63.87;;;;;;;-0.78;78.23;96764.72;1722095;82;25767;-85
2020/12/06 06:44:42;;;;;;;130.35;65.85;;;;;;;-0.80;78.29;96769.34;1721589;81;25885;-86
2020/12/06 06:47:14;;;;;;;148.25;68.25;;;;;;;-0.84;78.32;96767.48;1722053;81;27498;-85
2020/12/06 06:49:57;;;;;;;138.28;68.62;;;;;;;-0.79;78.50;96771.00;1711819;81;34900;-85
2020/12/06 06:52:27;;;;;;;134.78;66.20;;;;;;;-0.77;78.48;96771.69;1722161;83;25773;-85
2020/12/06 06:54:58;;;;;;;136.77;68.83;;;;;;;-0.73;78.45;96777.02;1721741;81;25824;-86
2020/12/06 06:57:29;;;;;;;137.70;67.42;;;;;;;-0.73;78.40;96775.70;1722124;82;25846;-86
2020/12/06 06:59:59;;;;;;;138.70;68.62;;;;;;;-0.70;78.46;96772.70;1721912;83;27482;-86
2020/12/06 07:02:41;;;;;;;138.88;71.85;;;;;;;-0.73;78.38;96771.72;1679871;83;25902;-85
2020/12/06 07:05:18;;;;;;;;;;;;;;;-0.72;78.47;96772.03;1717479;81;25797;-87
2020/12/06 07:07:53;;;;;;;136.75;64.15;;;;;;;-0.64;78.58;96779.22;1722185;81;26429;-85
2020/12/06 07:10:24;;;;;;;137.40;65.85;;;;;;;-0.64;78.57;96785.34;1722110;82;25802;-85
2020/12/06 07:12:55;;;;;;;123.60;61.10;;;;;;;-0.60;78.64;96771.27;1722166;83;27494;-86
2020/12/06 07:15:26;;;;;;;134.00;62.90;;;;;;;-0.54;78.66;96775.45;1722108;83;26119;-86
2020/12/06 07:17:55;;;;;;;133.15;64.87;;;;;;;-0.50;78.65;96781.28;1722012;83;26424;-86
2020/12/06 07:20:24;;;;;;;134.52;64.30;;;;;;;-0.50;78.70;96779.47;1722059;83;25815;-86
2020/12/06 07:22:53;;;;;;;130.05;61.77;;;;;;;-0.44;78.78;96781.97;1722139;81;25807;-86
2020/12/06 07:25:22;;;;;;;132.63;64.67;;;;;;;-0.33;78.91;96778.20;1721877;82;28616;-87
2020/12/06 07:27:50;;;;;;;131.80;62.65;;;;;;;-0.24;78.95;96775.94;1722142;81;25697;-86
2020/12/06 07:30:21;;;;;;;134.32;65.47;;;;;;;-0.21;78.83;96782.23;1720062;83;25772;-87
2020/12/06 07:32:48;;;;;;;133.32;64.67;;;;;;;-0.15;78.84;96781.61;1722693;81;25886;-87
2020/12/06 07:35:19;;;;;;;136.28;67.03;;;;;;;-0.07;78.90;96782.95;1755353;81;25755;-87
2020/12/06 07:37:46;;;;;;;132.07;65.00;;;;;;;-0.02;78.90;96787.30;1749079;81;27484;-86
2020/12/06 07:40:14;;;;;;;139.10;67.32;;;;;;;0.02;78.91;96778.00;1726301;81;26292;-86
2020/12/06 07:42:42;;;;;;;124.85;64.40;;;;;;;0.12;79.01;96777.36;1750774;80;25756;-86
2020/12/06 07:45:09;;;;;;;118.57;60.80;;;;;;;0.18;79.01;96780.72;1755245;81;25839;-86
2020/12/06 07:47:37;;;;;;;132.65;66.62;;;;;;;0.21;79.06;96777.74;1755231;81;25908;-85
2020/12/06 07:50:07;;;;;;;139.18;68.97;;;;;;;0.26;79.17;96774.09;1755271;81;26663;-85
2020/12/06 07:52:37;;;;;;;127.72;70.30;;;;;;;0.34;79.21;96764.83;1734046;81;26339;-85
2020/12/06 07:55:10;;;;;;;132.90;69.50;;;;;;;0.48;79.29;96763.86;1727520;81;26485;-85
2020/12/06 07:57:48;;;;;;;148.07;81.28;;;;;;;0.58;79.25;96768.52;1727581;81;25626;-84
2020/12/06 08:00:19;;;;;;;138.52;75.55;;;;;;;0.67;79.20;96767.52;1725210;81;25810;-84
2020/12/06 08:02:56;;;;;;;146.55;80.67;;;;;;;0.74;79.18;96776.47;1724974;82;27501;-85
2020/12/06 08:05:31;;;;;;;148.93;81.67;;;;;;;0.77;79.20;96774.82;1733769;82;25898;-85
2020/12/06 08:10:57;;;;;;;152.12;78.45;;;;;;;1.08;79.39;96755.06;1873037;76;34807;-85
2020/12/06 08:13:25;;;;;;;165.35;86.32;;;;;;;1.12;79.35;96764.83;1809077;77;25727;-85
2020/12/06 08:15:52;;;;;;;184.10;95.32;;;;;;;1.22;79.42;96766.80;1855615;77;28363;-83
2020/12/06 08:18:20;;;;;;;185.80;98.12;;;;;;;1.34;79.47;96755.65;1855617;77;26616;-84
2020/12/06 08:20:54;;;;;;;188.20;98.65;;;;;;;1.42;79.36;96764.13;1829979;77;25780;-83
2020/12/06 08:23:36;;;;;;;179.42;92.72;;;;;;;1.46;79.30;96765.42;1855544;77;25695;-84
2020/12/06 08:26:05;;;;;;;182.02;97.65;;;;;;;1.53;79.31;96765.59;1766789;80;25820;-83
2020/12/06 08:28:33;;;;;;;168.75;92.05;;;;;;;1.57;79.26;96759.74;1786267;80;27567;-83
2020/12/06 08:31:00;;;;;;;184.90;100.55;;;;;;;1.63;79.23;96767.05;1786195;80;26085;-83
2020/12/06 08:33:29;;;;;;;187.00;99.15;;;;;;;1.70;79.39;96760.03;1786226;80;25703;-84
2020/12/06 08:36:00;;;;;;;183.72;101.07;;;;;;;1.83;79.37;96755.50;1778757;80;25895;-83
2020/12/06 08:38:31;;;;;;;159.22;87.97;;;;;;;1.86;79.31;96747.17;1788632;79;25814;-83
2020/12/06 08:41:13;;;;;;;159.60;91.25;;;;;;;1.97;79.37;96744.63;1799935;78;27514;-84
2020/12/06 08:43:53;;;;;;;178.30;97.72;;;;;;;2.21;79.62;96747.16;1780150;78;25754;-84
2020/12/06 08:46:24;;;;;;;157.60;91.80;;;;;;;2.49;79.77;96755.48;1790571;79;25788;-84
2020/12/06 08:48:57;;;;;;;153.50;88.65;;;;;;;2.63;79.45;96751.23;1791073;78;26174;-85
2020/12/06 08:51:29;;;;;;;153.07;86.25;;;;;;;2.73;79.21;96751.31;1781682;79;25808;-85
2020/12/06 08:53:58;;;;;;;149.53;85.22;;;;;;;2.82;79.13;96744.08;1797350;78;26692;-85
2020/12/06 08:56:41;;;;;;;148.07;84.25;;;;;;;2.90;79.08;96749.33;1814374;78;25699;-85
2020/12/06 08:59:17;;;;;;;159.00;87.27;;;;;;;3.08;79.39;96743.69;1772083;80;25793;-85
2020/12/06 09:01:56;;;;;;;152.90;86.40;;;;;;;3.24;79.23;96741.70;1786032;80;26274;-85
2020/12/06 09:04:25;;;;;;;152.93;85.32;;;;;;;3.26;78.89;96733.00;1790966;79;25816;-85
2020/12/06 09:06:54;;;;;;;151.75;84.95;;;;;;;3.36;79.10;96738.59;1783458;80;27561;-84
2020/12/06 09:09:22;;;;;;;182.82;103.55;;;;;;;3.49;78.96;96741.45;1779181;80;25712;-84
2020/12/06 09:11:57;;;;;;;166.97;95.30;;;;;;;3.61;78.81;96726.65;1768383;81;25308;-83
2020/12/06 09:14:25;;;;;;;163.28;92.27;;;;;;;3.72;78.75;96722.69;1768250;80;26230;-84
2020/12/06 09:16:53;;;;;;;166.68;91.35;;;;;;;3.88;78.61;96719.80;1768221;80;25902;-85
2020/12/06 09:19:20;;;;;;;171.95;94.95;;;;;;;4.10;78.83;96708.69;1764009;81;27590;-85
2020/12/06 09:21:48;;;;;;;173.62;95.30;;;;;;;4.34;78.75;96707.00;1756433;80;25775;-85
2020/12/06 09:24:15;;;;;;;173.68;98.05;;;;;;;4.50;78.44;96704.07;1754268;80;25282;-86
2020/12/06 09:26:43;;;;;;;144.28;79.77;;;;;;;4.72;78.20;96702.22;1754922;80;26162;-86
2020/12/06 09:29:10;;;;;;;140.55;80.53;;;;;;;4.87;78.09;96699.47;1787567;80;25692;-86
2020/12/06 09:31:37;;;;;;;140.73;77.72;;;;;;;5.09;78.53;96698.42;1771745;80;28516;-87
2020/12/06 09:34:04;;;;;;;119.37;67.17;;;;;;;5.40;78.41;96694.84;1778092;79;26303;-85
2020/12/06 09:36:32;;;;;;;112.42;63.25;;;;;;;5.69;78.00;96694.28;1762793;80;25876;-87
2020/12/06 09:38:59;;;;;;;109.37;62.88;;;;;;;5.99;77.83;96691.69;1756342;78;26161;-88
2020/12/06 09:41:26;;;;;;;100.38;59.98;;;;;;;6.32;77.93;96682.41;1778349;78;25868;-86
2020/12/06 09:43:54;;;;;;;86.95;51.05;;;;;;;6.71;77.75;96680.84;1756475;78;27530;-87
2020/12/06 09:46:22;;;;;;;95.32;53.50;;;;;;;6.99;77.25;96667.25;1756321;78;26401;-87
2020/12/06 09:48:49;;;;;;;91.75;53.95;;;;;;;7.18;77.00;96669.91;1764739;80;25722;-86
2020/12/06 09:51:16;;;;;;;86.87;51.90;;;;;;;7.29;76.39;96668.97;1788952;78;25817;-88
2020/12/06 09:53:48;;;;;;;93.55;52.50;;;;;;;7.39;76.37;96665.33;1787664;79;25826;-85
2020/12/06 09:56:14;;;;;;;93.25;54.42;;;;;;;7.47;75.98;96660.59;1752294;81;27467;-86
2020/12/06 09:58:41;;;;;;;83.92;51.70;;;;;;;7.57;75.94;96666.34;1737120;81;25936;-86
2020/12/06 10:01:08;;;;;;;85.10;51.05;;;;;;;7.64;75.69;96666.83;1737270;81;25725;-85
2020/12/06 10:03:37;;;;;;;83.42;51.20;;;;;;;7.66;75.40;96667.45;1752533;81;26175;-86
2020/12/06 10:06:04;;;;;;;89.15;52.05;;;;;;;7.63;75.20;96659.28;1757246;81;25831;-86
2020/12/06 10:08:31;;;;;;;81.12;49.45;;;;;;;7.59;75.03;96650.84;1737220;81;27711;-84
2020/12/06 10:10:59;;;;;;;88.33;50.63;;;;;;;7.62;75.17;96639.34;1728846;81;25769;-86
2020/12/06 10:13:26;;;;;;;91.08;52.93;;;;;;;7.63;75.14;96642.34;1717909;82;26524;-85
2020/12/06 10:15:53;;;;;;;90.35;54.55;;;;;;;7.78;75.17;96638.89;1731699;82;25712;-85
2020/12/06 10:18:21;;;;;;;93.82;55.73;;;;;;;7.94;75.34;96634.39;1768828;81;25838;-86
2020/12/06 10:20:48;;;;;;;108.30;64.70;;;;;;;8.20;75.10;96628.89;1768761;81;27594;-84
2020/12/06 10:23:15;;;;;;;112.12;69.07;;;;;;;8.44;74.82;96624.65;1762723;81;25835;-86
2020/12/06 10:25:43;;;;;;;101.90;62.40;;;;;;;8.58;74.43;96614.59;1762695;79;25825;-86
2020/12/06 10:28:10;;;;;;;93.75;57.40;;;;;;;8.75;74.06;96619.76;1762913;79;26142;-85
2020/12/06 10:30:37;;;;;;;85.32;51.48;;;;;;;9.00;74.16;96613.86;1758257;79;26287;-87
2020/12/06 10:33:05;;;;;;;84.62;51.48;;;;;;;9.35;73.95;96613.32;1746284;81;27638;-86
2020/12/06 10:35:32;;;;;;;84.32;52.38;;;;;;;9.38;72.87;96615.58;1768796;81;26215;-87
2020/12/06 10:37:59;;;;;;;82.75;51.02;;;;;;;9.33;72.42;96610.84;1732771;81;25720;-86
2020/12/06 10:40:27;;;;;;;85.65;53.20;;;;;;;9.27;72.21;96604.19;1768826;81;26106;-86
2020/12/06 10:42:54;;;;;;;82.12;50.65;;;;;;;9.18;72.25;96602.81;1732753;81;25826;-86
2020/12/06 10:45:21;;;;;;;80.00;48.85;;;;;;;9.24;72.35;96595.20;1768874;81;27575;-86
2020/12/06 10:47:49;;;;;;;77.47;47.93;;;;;;;9.39;72.52;96600.55;1768544;79;25706;-86
2020/12/06 10:50:16;;;;;;;73.83;44.30;;;;;;;9.64;72.30;96595.09;1762465;80;25756;-87
2020/12/06 10:52:43;;;;;;;71.67;46.00;;;;;;;9.90;72.19;96582.34;1762658;79;25816;-86
2020/12/06 10:55:11;;;;;;;75.15;45.80;;;;;;;10.12;71.99;96587.55;1762704;79;25914;-86
2020/12/06 10:57:38;;;;;;;30.30;20.05;;;;;;;10.44;71.82;96586.27;1747765;79;27505;-86
2020/12/06 11:00:06;;;;;;;13.43;8.28;;;;;;;10.65;71.68;96582.20;1732242;81;25771;-87
2020/12/06 11:02:34;;;;;;;10.38;6.58;;;;;;;11.27;71.99;96568.28;1732491;79;25809;-88
2020/12/06 11:05:01;;;;;;;7.87;5.35;;;;;;;11.98;71.71;96561.71;1749293;81;25680;-87
2020/12/06 11:07:29;;;;;;;7.42;5.85;;;;;;;12.56;70.58;96567.67;1741714;79;25831;-87
2020/12/06 11:09:57;;;;;;;9.10;5.85;;;;;;;13.15;70.16;96572.22;1754396;81;27507;-88
2020/12/06 11:12:24;;;;;;;9.48;6.08;;;;;;;13.60;69.36;96569.34;1754911;79;26938;-87
2020/12/06 11:14:51;;;;;;;9.60;6.53;;;;;;;14.02;68.43;96581.80;1775762;78;25809;-89
2020/12/06 11:17:19;;;;;;;11.40;5.67;;;;;;;14.35;67.67;96582.20;1777130;78;25768;-88
2020/12/06 11:19:46;;;;;;;7.53;5.15;;;;;;;14.57;66.88;96580.83;1753383;78;25796;-89
2020/12/06 11:22:13;;;;;;;8.80;5.53;;;;;;;14.78;66.28;96580.48;1782532;78;28511;-87
2020/12/06 11:24:41;;;;;;;7.37;4.87;;;;;;;14.88;65.51;96581.92;1753299;78;26039;-87